sensor_id;sensor_type;location;lat;lon;timestamp;pressure;altitude;pressure_sealevel;temperature;humidity
43436;BME280;36399;51.444;-2.018;2023-05-10T00:01:09;100677.94;;;8.97;100.00
43436;BME280;36399;51.444;-2.018;2023-05-10T00:03:35;100675.22;;;8.93;100.00
43436;BME280;36399;51.444;-2.018;2023-05-10T00:06:01;100672.28;;;8.80;100.00
43436;BME280;36399;51.444;-2.018;2023-05-10T00:08:28;100676.59;;;8.78;100.00
43436;BME280;36399;51.444;-2.018;2023-05-10T00:10:54;100665.72;;;8.60;100.00
43436;BME280;36399;51.444;-2.018;2023-05-10T00:13:20;100664.16;;;8.68;100.00
43436;BME280;36399;51.444;-2.018;2023-05-10T00:15:46;100672.03;;;8.70;100.00
43436;BME280;36399;51.444;-2.018;2023-05-10T00:18:11;100679.19;;;8.77;100.00
43436;BME280;36399;51.444;-2.018;2023-05-10T00:20:37;100679.72;;;8.62;100.00
43436;BME280;36399;51.444;-2.018;2023-05-10T00:23:03;100675.00;;;8.47;100.00
43436;BME280;36399;51.444;-2.018;2023-05-10T00:25:31;100675.72;;;8.42;100.00
43436;BME280;36399;51.444;-2.018;2023-05-10T00:27:57;100678.59;;;8.52;100.00
43436;BME280;36399;51.444;-2.018;2023-05-10T00:30:23;100676.09;;;8.57;100.00
43436;BME280;36399;51.444;-2.018;2023-05-10T00:32:49;100690.03;;;8.56;100.00
43436;BME280;36399;51.444;-2.018;2023-05-10T00:35:15;100688.19;;;8.52;100.00
43436;BME280;36399;51.444;-2.018;2023-05-10T00:37:41;100682.88;;;8.49;100.00
43436;BME280;36399;51.444;-2.018;2023-05-10T00:40:08;100687.38;;;8.54;100.00
43436;BME280;36399;51.444;-2.018;2023-05-10T00:42:34;100682.88;;;8.49;100.00
43436;BME280;36399;51.444;-2.018;2023-05-10T00:45:00;100684.50;;;8.44;100.00
43436;BME280;36399;51.444;-2.018;2023-05-10T00:47:26;100675.66;;;8.39;100.00
43436;BME280;36399;51.444;-2.018;2023-05-10T00:49:52;100675.72;;;8.42;100.00
43436;BME280;36399;51.444;-2.018;2023-05-10T00:52:18;100674.81;;;8.40;100.00
43436;BME280;36399;51.444;-2.018;2023-05-10T00:54:44;100684.13;;;8.32;100.00
43436;BME280;36399;51.444;-2.018;2023-05-10T00:57:10;100682.13;;;8.21;100.00
43436;BME280;36399;51.444;-2.018;2023-05-10T00:59:36;100681.69;;;8.36;100.00
43436;BME280;36399;51.444;-2.018;2023-05-10T01:02:02;100682.38;;;8.31;100.00
43436;BME280;36399;51.444;-2.018;2023-05-10T01:04:29;100690.88;;;8.22;100.00
43436;BME280;36399;51.444;-2.018;2023-05-10T01:06:56;100684.81;;;8.24;100.00
43436;BME280;36399;51.444;-2.018;2023-05-10T01:09:22;100689.06;;;8.19;100.00
43436;BME280;36399;51.444;-2.018;2023-05-10T01:11:48;100686.91;;;8.35;100.00
43436;BME280;36399;51.444;-2.018;2023-05-10T01:14:17;100694.75;;;8.35;100.00
43436;BME280;36399;51.444;-2.018;2023-05-10T01:16:45;100692.25;;;8.39;100.00
43436;BME280;36399;51.444;-2.018;2023-05-10T01:19:19;100693.06;;;8.37;100.00
43436;BME280;36399;51.444;-2.018;2023-05-10T01:21:57;100703.59;;;8.40;100.00
43436;BME280;36399;51.444;-2.018;2023-05-10T01:35:53;100714.13;;;8.43;100.00
43436;BME280;36399;51.444;-2.018;2023-05-10T01:38:52;100722.25;;;8.53;100.00
43436;BME280;36399;51.444;-2.018;2023-05-10T01:41:36;100723.13;;;8.54;100.00
43436;BME280;36399;51.444;-2.018;2023-05-10T01:44:29;100722.22;;;8.52;100.00
43436;BME280;36399;51.444;-2.018;2023-05-10T01:47:19;100729.97;;;8.49;100.00
43436;BME280;36399;51.444;-2.018;2023-05-10T01:49:50;100729.66;;;8.37;100.00
43436;BME280;36399;51.444;-2.018;2023-05-10T01:52:19;100731.19;;;8.30;100.00
43436;BME280;36399;51.444;-2.018;2023-05-10T01:54:53;100727.44;;;8.20;100.00
43436;BME280;36399;51.444;-2.018;2023-05-10T01:57:22;100729.09;;;8.17;100.00
43436;BME280;36399;51.444;-2.018;2023-05-10T01:59:50;100732.25;;;8.05;100.00
43436;BME280;36399;51.444;-2.018;2023-05-10T02:02:20;100733.09;;;8.04;100.00
43436;BME280;36399;51.444;-2.018;2023-05-10T02:04:47;100730.50;;;8.04;100.00
43436;BME280;36399;51.444;-2.018;2023-05-10T02:07:15;100738.31;;;8.03;100.00
43436;BME280;36399;51.444;-2.018;2023-05-10T02:09:44;100731.47;;;8.08;100.00
43436;BME280;36399;51.444;-2.018;2023-05-10T02:12:14;100737.66;;;8.11;100.00
43436;BME280;36399;51.444;-2.018;2023-05-10T02:14:41;100742.72;;;8.05;100.00
43436;BME280;36399;51.444;-2.018;2023-05-10T02:17:08;100741.03;;;8.07;100.00
43436;BME280;36399;51.444;-2.018;2023-05-10T02:19:38;100732.31;;;8.07;100.00
43436;BME280;36399;51.444;-2.018;2023-05-10T02:22:05;100738.50;;;8.10;100.00
43436;BME280;36399;51.444;-2.018;2023-05-10T02:24:34;100743.84;;;8.15;100.00
43436;BME280;36399;51.444;-2.018;2023-05-10T02:27:02;100744.69;;;8.14;100.00
43436;BME280;36399;51.444;-2.018;2023-05-10T02:29:30;100746.50;;;8.16;100.00
43436;BME280;36399;51.444;-2.018;2023-05-10T02:31:57;100752.72;;;8.20;100.00
43436;BME280;36399;51.444;-2.018;2023-05-10T02:34:25;100756.88;;;8.13;100.00
43436;BME280;36399;51.444;-2.018;2023-05-10T02:36:53;100758.91;;;8.23;100.00
43436;BME280;36399;51.444;-2.018;2023-05-10T02:39:21;100756.13;;;8.17;100.00
43436;BME280;36399;51.444;-2.018;2023-05-10T02:41:49;100764.22;;;8.27;100.00
43436;BME280;36399;51.444;-2.018;2023-05-10T02:44:18;100754.75;;;8.32;100.00
43436;BME280;36399;51.444;-2.018;2023-05-10T02:46:46;100763.00;;;8.14;100.00
43436;BME280;36399;51.444;-2.018;2023-05-10T02:49:12;100767.50;;;8.19;100.00
43436;BME280;36399;51.444;-2.018;2023-05-10T02:51:43;100762.91;;;8.11;100.00
43436;BME280;36399;51.444;-2.018;2023-05-10T02:54:13;100764.31;;;7.98;100.00
43436;BME280;36399;51.444;-2.018;2023-05-10T02:56:47;100767.19;;;8.07;100.00
43436;BME280;36399;51.444;-2.018;2023-05-10T02:59:16;100770.59;;;8.05;100.00
43436;BME280;36399;51.444;-2.018;2023-05-10T03:01:42;100773.09;;;8.00;100.00
43436;BME280;36399;51.444;-2.018;2023-05-10T03:04:08;100779.16;;;7.99;100.00
43436;BME280;36399;51.444;-2.018;2023-05-10T03:06:34;100772.06;;;7.95;100.00
43436;BME280;36399;51.444;-2.018;2023-05-10T03:09:01;100773.59;;;7.87;100.00
43436;BME280;36399;51.444;-2.018;2023-05-10T03:11:49;100778.78;;;7.85;100.00
43436;BME280;36399;51.444;-2.018;2023-05-10T03:14:53;100774.06;;;7.74;100.00
43436;BME280;36399;51.444;-2.018;2023-05-10T03:20:18;100777.69;;;7.79;100.00
43436;BME280;36399;51.444;-2.018;2023-05-10T03:22:52;100776.28;;;7.90;100.00
43436;BME280;36399;51.444;-2.018;2023-05-10T03:25:20;100781.78;;;7.99;100.00
43436;BME280;36399;51.444;-2.018;2023-05-10T03:27:47;100787.22;;;8.07;100.00
43436;BME280;36399;51.444;-2.018;2023-05-10T03:30:13;100798.91;;;8.19;100.00
43436;BME280;36399;51.444;-2.018;2023-05-10T03:32:40;100797.38;;;8.28;100.00
43436;BME280;36399;51.444;-2.018;2023-05-10T03:35:10;100797.94;;;8.46;100.00
43436;BME280;36399;51.444;-2.018;2023-05-10T03:37:36;100800.09;;;8.62;100.00
43436;BME280;36399;51.444;-2.018;2023-05-10T03:40:02;100791.25;;;8.57;100.00
43436;BME280;36399;51.444;-2.018;2023-05-10T03:42:28;100794.22;;;8.71;100.00
43436;BME280;36399;51.444;-2.018;2023-05-10T03:44:55;100800.25;;;8.68;100.00
43436;BME280;36399;51.444;-2.018;2023-05-10T03:47:20;100806.47;;;8.73;100.00
43436;BME280;36399;51.444;-2.018;2023-05-10T03:49:46;100807.47;;;8.78;100.00
43436;BME280;36399;51.444;-2.018;2023-05-10T03:52:12;100805.06;;;8.84;100.00
43436;BME280;36399;51.444;-2.018;2023-05-10T03:54:38;100812.16;;;8.90;100.00
43436;BME280;36399;51.444;-2.018;2023-05-10T03:57:04;100813.13;;;8.94;100.00
43436;BME280;36399;51.444;-2.018;2023-05-10T03:59:30;100819.38;;;8.99;100.00
43436;BME280;36399;51.444;-2.018;2023-05-10T04:01:56;100815.97;;;9.03;100.00
43436;BME280;36399;51.444;-2.018;2023-05-10T04:04:22;100816.81;;;9.02;100.00
43436;BME280;36399;51.444;-2.018;2023-05-10T04:06:49;100827.44;;;9.08;100.00
43436;BME280;36399;51.444;-2.018;2023-05-10T04:09:15;100829.16;;;9.06;100.00
43436;BME280;36399;51.444;-2.018;2023-05-10T04:11:42;100822.06;;;9.02;100.00
43436;BME280;36399;51.444;-2.018;2023-05-10T04:14:08;100823.03;;;9.05;100.00
43436;BME280;36399;51.444;-2.018;2023-05-10T04:16:34;100823.16;;;9.11;100.00
43436;BME280;36399;51.444;-2.018;2023-05-10T04:19:00;100835.50;;;9.15;100.00
43436;BME280;36399;51.444;-2.018;2023-05-10T04:21:26;100827.44;;;9.08;100.00
43436;BME280;36399;51.444;-2.018;2023-05-10T04:23:52;100828.38;;;9.10;100.00
43436;BME280;36399;51.444;-2.018;2023-05-10T04:26:18;100837.19;;;9.13;100.00
43436;BME280;36399;51.444;-2.018;2023-05-10T04:28:44;100825.91;;;9.16;100.00
43436;BME280;36399;51.444;-2.018;2023-05-10T04:31:10;100824.19;;;9.18;100.00
43436;BME280;36399;51.444;-2.018;2023-05-10T04:33:36;100825.94;;;9.17;100.00
43436;BME280;36399;51.444;-2.018;2023-05-10T04:36:03;100830.41;;;9.22;100.00
43436;BME280;36399;51.444;-2.018;2023-05-10T04:38:29;100824.16;;;9.16;100.00
43436;BME280;36399;51.444;-2.018;2023-05-10T04:41:03;100824.28;;;9.21;100.00
43436;BME280;36399;51.444;-2.018;2023-05-10T04:43:30;100822.44;;;9.17;100.00
43436;BME280;36399;51.444;-2.018;2023-05-10T04:45:56;100813.78;;;9.21;100.00
43436;BME280;36399;51.444;-2.018;2023-05-10T04:48:22;100805.00;;;9.19;100.00
43436;BME280;36399;51.444;-2.018;2023-05-10T04:50:48;100818.25;;;9.25;100.00
43436;BME280;36399;51.444;-2.018;2023-05-10T04:53:14;100815.69;;;9.28;100.00
43436;BME280;36399;51.444;-2.018;2023-05-10T04:55:40;100810.41;;;9.25;100.00
43436;BME280;36399;51.444;-2.018;2023-05-10T04:58:06;100813.06;;;9.27;100.00
43436;BME280;36399;51.444;-2.018;2023-05-10T05:00:33;100803.47;;;9.27;100.00
43436;BME280;36399;51.444;-2.018;2023-05-10T05:02:59;100822.84;;;9.35;100.00
43436;BME280;36399;51.444;-2.018;2023-05-10T05:05:25;100821.41;;;9.46;100.00
43436;BME280;36399;51.444;-2.018;2023-05-10T05:07:51;100820.34;;;9.38;100.00
43436;BME280;36399;51.444;-2.018;2023-05-10T05:10:17;100824.72;;;9.39;100.00
43436;BME280;36399;51.444;-2.018;2023-05-10T05:12:43;100820.47;;;9.44;100.00
43436;BME280;36399;51.444;-2.018;2023-05-10T05:15:09;100825.94;;;9.54;100.00
43436;BME280;36399;51.444;-2.018;2023-05-10T05:17:36;100817.16;;;9.52;100.00
43436;BME280;36399;51.444;-2.018;2023-05-10T05:20:05;100825.22;;;9.61;100.00
43436;BME280;36399;51.444;-2.018;2023-05-10T05:22:31;100819.75;;;9.52;100.00
43436;BME280;36399;51.444;-2.018;2023-05-10T05:24:57;100810.22;;;9.55;100.00
43436;BME280;36399;51.444;-2.018;2023-05-10T05:27:28;100812.03;;;9.58;100.00
43436;BME280;36399;51.444;-2.018;2023-05-10T05:29:57;100811.19;;;9.59;100.00
43436;BME280;36399;51.444;-2.018;2023-05-10T05:32:24;100813.88;;;9.62;100.00
43436;BME280;36399;51.444;-2.018;2023-05-10T05:34:51;100814.94;;;9.70;100.00
43436;BME280;36399;51.444;-2.018;2023-05-10T05:37:18;100806.34;;;9.77;100.00
43436;BME280;36399;51.444;-2.018;2023-05-10T05:39:45;100809.00;;;9.78;100.00
43436;BME280;36399;51.444;-2.018;2023-05-10T05:42:12;100803.72;;;9.77;100.00
43436;BME280;36399;51.444;-2.018;2023-05-10T05:44:38;100799.44;;;9.82;100.00
43436;BME280;36399;51.444;-2.018;2023-05-10T05:47:04;100801.28;;;9.86;100.00
43436;BME280;36399;51.444;-2.018;2023-05-10T05:49:30;100799.38;;;9.79;100.00
43436;BME280;36399;51.444;-2.018;2023-05-10T05:52:00;100791.47;;;9.76;100.00
43436;BME280;36399;51.444;-2.018;2023-05-10T05:54:27;100801.16;;;9.80;100.00
43436;BME280;36399;51.444;-2.018;2023-05-10T05:56:57;100788.81;;;9.74;100.00
43436;BME280;36399;51.444;-2.018;2023-05-10T05:59:23;100783.41;;;9.67;100.00
43436;BME280;36399;51.444;-2.018;2023-05-10T06:01:50;100792.19;;;9.69;100.00
43436;BME280;36399;51.444;-2.018;2023-05-10T06:04:16;100784.47;;;9.76;100.00
43436;BME280;36399;51.444;-2.018;2023-05-10T06:06:42;100789.75;;;9.78;100.00
43436;BME280;36399;51.444;-2.018;2023-05-10T06:09:09;100790.66;;;9.80;100.00
43436;BME280;36399;51.444;-2.018;2023-05-10T06:11:35;100779.53;;;9.89;100.00
43436;BME280;36399;51.444;-2.018;2023-05-10T06:14:01;100786.59;;;9.93;100.00
43436;BME280;36399;51.444;-2.018;2023-05-10T06:16:29;100781.41;;;9.96;100.00
43436;BME280;36399;51.444;-2.018;2023-05-10T06:18:55;100778.75;;;9.94;100.00
43436;BME280;36399;51.444;-2.018;2023-05-10T06:21:21;100779.81;;;10.04;100.00
43436;BME280;36399;51.444;-2.018;2023-05-10T06:23:47;100784.19;;;10.03;100.00
43436;BME280;36399;51.444;-2.018;2023-05-10T06:26:13;100783.56;;;10.17;100.00
43436;BME280;36399;51.444;-2.018;2023-05-10T06:28:39;100782.75;;;10.19;100.00
43436;BME280;36399;51.444;-2.018;2023-05-10T06:31:06;100783.81;;;10.27;100.00
43436;BME280;36399;51.444;-2.018;2023-05-10T06:33:33;100779.50;;;10.31;100.00
43436;BME280;36399;51.444;-2.018;2023-05-10T06:35:59;100785.84;;;10.42;100.00
43436;BME280;36399;51.444;-2.018;2023-05-10T06:38:25;100796.28;;;10.89;100.00
43436;BME280;36399;51.444;-2.018;2023-05-10T06:40:51;100790.22;;;10.91;100.00
43436;BME280;36399;51.444;-2.018;2023-05-10T06:43:17;100792.53;;;11.26;100.00
43436;BME280;36399;51.444;-2.018;2023-05-10T06:45:43;100796.44;;;10.96;100.00
43436;BME280;36399;51.444;-2.018;2023-05-10T06:48:09;100792.44;;;11.20;100.00
43436;BME280;36399;51.444;-2.018;2023-05-10T06:50:35;100789.91;;;11.27;100.00
43436;BME280;36399;51.444;-2.018;2023-05-10T06:53:01;100791.72;;;11.31;100.00
43436;BME280;36399;51.444;-2.018;2023-05-10T06:55:28;100790.34;;;11.55;100.00
43436;BME280;36399;51.444;-2.018;2023-05-10T06:57:54;100783.03;;;11.35;100.00
43436;BME280;36399;51.444;-2.018;2023-05-10T07:00:20;100772.56;;;11.40;100.00
43436;BME280;36399;51.444;-2.018;2023-05-10T07:02:46;100771.63;;;11.33;100.00
43436;BME280;36399;51.444;-2.018;2023-05-10T07:05:12;100771.00;;;11.50;100.00
43436;BME280;36399;51.444;-2.018;2023-05-10T07:07:39;100761.69;;;11.76;100.00
43436;BME280;36399;51.444;-2.018;2023-05-10T07:10:05;100763.09;;;12.15;100.00
43436;BME280;36399;51.444;-2.018;2023-05-10T07:12:31;100760.63;;;12.31;100.00
43436;BME280;36399;51.444;-2.018;2023-05-10T07:14:57;100757.94;;;12.27;100.00
43436;BME280;36399;51.444;-2.018;2023-05-10T07:17:23;100757.97;;;12.30;100.00
43436;BME280;36399;51.444;-2.018;2023-05-10T07:19:49;100758.81;;;12.26;100.00
43436;BME280;36399;51.444;-2.018;2023-05-10T07:22:15;100763.28;;;12.33;100.00
43436;BME280;36399;51.444;-2.018;2023-05-10T07:24:42;100760.59;;;12.28;100.00
43436;BME280;36399;51.444;-2.018;2023-05-10T07:27:08;100751.13;;;12.47;100.00
43436;BME280;36399;51.444;-2.018;2023-05-10T07:29:35;100743.41;;;12.64;100.00
43436;BME280;36399;51.444;-2.018;2023-05-10T07:32:03;100747.94;;;12.82;100.00
43436;BME280;36399;51.444;-2.018;2023-05-10T07:34:29;100755.19;;;13.06;100.00
43436;BME280;36399;51.444;-2.018;2023-05-10T07:36:58;100761.59;;;13.46;100.00
43436;BME280;36399;51.444;-2.018;2023-05-10T07:39:25;100745.97;;;13.78;100.00
43436;BME280;36399;51.444;-2.018;2023-05-10T07:41:51;100724.91;;;13.93;100.00
43436;BME280;36399;51.444;-2.018;2023-05-10T07:44:17;100713.44;;;13.80;100.00
43436;BME280;36399;51.444;-2.018;2023-05-10T07:46:47;100695.00;;;13.99;100.00
43436;BME280;36399;51.444;-2.018;2023-05-10T07:49:13;100677.38;;;13.92;100.00
43436;BME280;36399;51.444;-2.018;2023-05-10T07:51:39;100664.19;;;13.92;100.00
43436;BME280;36399;51.444;-2.018;2023-05-10T07:54:05;100655.41;;;14.02;100.00
43436;BME280;36399;51.444;-2.018;2023-05-10T07:56:32;100650.09;;;13.86;100.00
43436;BME280;36399;51.444;-2.018;2023-05-10T07:58:59;100638.69;;;14.04;100.00
43436;BME280;36399;51.444;-2.018;2023-05-10T08:01:26;100636.13;;;14.51;100.00
43436;BME280;36399;51.444;-2.018;2023-05-10T08:03:52;100623.81;;;14.46;100.00
43436;BME280;36399;51.444;-2.018;2023-05-10T08:06:19;100605.31;;;14.72;100.00
43436;BME280;36399;51.444;-2.018;2023-05-10T08:08:47;100599.13;;;14.82;100.00
43436;BME280;36399;51.444;-2.018;2023-05-10T08:11:19;100610.56;;;14.78;100.00
43436;BME280;36399;51.444;-2.018;2023-05-10T08:13:47;100603.47;;;14.98;100.00
43436;BME280;36399;51.444;-2.018;2023-05-10T08:16:13;100601.59;;;15.32;100.00
43436;BME280;36399;51.444;-2.018;2023-05-10T08:18:39;100583.94;;;15.40;100.00
43436;BME280;36399;51.444;-2.018;2023-05-10T08:21:06;100573.47;;;15.18;100.00
43436;BME280;36399;51.444;-2.018;2023-05-10T08:23:32;100591.09;;;15.05;100.00
43436;BME280;36399;51.444;-2.018;2023-05-10T08:25:59;100594.69;;;14.86;100.00
43436;BME280;36399;51.444;-2.018;2023-05-10T08:28:25;100616.72;;;14.42;100.00
43436;BME280;36399;51.444;-2.018;2023-05-10T08:30:51;100619.38;;;14.11;100.00
43436;BME280;36399;51.444;-2.018;2023-05-10T08:33:18;100629.00;;;13.80;100.00
43436;BME280;36399;51.444;-2.018;2023-05-10T08:35:44;100649.22;;;13.77;100.00
43436;BME280;36399;51.444;-2.018;2023-05-10T08:38:10;100666.75;;;13.63;100.00
43436;BME280;36399;51.444;-2.018;2023-05-10T08:40:37;100666.81;;;13.78;100.00
43436;BME280;36399;51.444;-2.018;2023-05-10T08:43:09;100672.09;;;13.81;100.00
43436;BME280;36399;51.444;-2.018;2023-05-10T08:45:44;100665.06;;;13.81;100.00
43436;BME280;36399;51.444;-2.018;2023-05-10T08:48:14;100653.63;;;13.88;100.00
43436;BME280;36399;51.444;-2.018;2023-05-10T08:50:41;100646.66;;;14.23;100.00
43436;BME280;36399;51.444;-2.018;2023-05-10T08:53:12;100644.94;;;14.75;100.00
43436;BME280;36399;51.444;-2.018;2023-05-10T08:55:39;100636.94;;;15.08;100.00
43436;BME280;36399;51.444;-2.018;2023-05-10T08:58:08;100621.06;;;15.05;100.00
43436;BME280;36399;51.444;-2.018;2023-05-10T09:00:34;100599.97;;;14.90;100.00
43436;BME280;36399;51.444;-2.018;2023-05-10T09:03:02;100591.88;;;15.39;100.00
43436;BME280;36399;51.444;-2.018;2023-05-10T09:05:28;100582.31;;;15.12;100.00
43436;BME280;36399;51.444;-2.018;2023-05-10T09:07:54;100592.94;;;14.80;100.00
43436;BME280;36399;51.444;-2.018;2023-05-10T09:10:21;100593.72;;;15.19;100.00
43436;BME280;36399;51.444;-2.018;2023-05-10T09:12:48;100583.00;;;15.46;100.00
43436;BME280;36399;51.444;-2.018;2023-05-10T09:15:16;100588.25;;;15.64;100.00
43436;BME280;36399;51.444;-2.018;2023-05-10T09:17:45;100579.97;;;16.16;100.00
43436;BME280;36399;51.444;-2.018;2023-05-10T09:20:11;100573.84;;;16.05;100.00
43436;BME280;36399;51.444;-2.018;2023-05-10T09:22:37;100561.75;;;15.70;100.00
43436;BME280;36399;51.444;-2.018;2023-05-10T09:25:14;100576.00;;;15.39;100.00
43436;BME280;36399;51.444;-2.018;2023-05-10T09:27:44;100585.84;;;14.99;100.00
43436;BME280;36399;51.444;-2.018;2023-05-10T09:30:15;100581.47;;;14.87;100.00
43436;BME280;36399;51.444;-2.018;2023-05-10T09:32:46;100613.22;;;14.52;100.00
43436;BME280;36399;51.444;-2.018;2023-05-10T09:35:14;100626.44;;;14.82;100.00
43436;BME280;36399;51.444;-2.018;2023-05-10T09:37:43;100631.75;;;14.66;100.00
43436;BME280;36399;51.444;-2.018;2023-05-10T09:40:17;100630.00;;;14.60;100.00
43436;BME280;36399;51.444;-2.018;2023-05-10T09:43:00;100630.84;;;14.55;100.00
43436;BME280;36399;51.444;-2.018;2023-05-10T09:45:41;100629.09;;;14.57;100.00
43436;BME280;36399;51.444;-2.018;2023-05-10T09:48:07;100638.78;;;14.42;100.00
43436;BME280;36399;51.444;-2.018;2023-05-10T09:50:33;100635.22;;;14.34;100.00
43436;BME280;36399;51.444;-2.018;2023-05-10T09:53:01;100630.75;;;15.22;100.00
43436;BME280;36399;51.444;-2.018;2023-05-10T09:55:42;100612.19;;;15.29;100.00
43436;BME280;36399;51.444;-2.018;2023-05-10T09:58:12;100594.72;;;14.76;100.00
43436;BME280;36399;51.444;-2.018;2023-05-10T10:00:40;100603.53;;;14.78;100.00
43436;BME280;36399;51.444;-2.018;2023-05-10T10:03:12;100611.75;;;16.15;100.00
43436;BME280;36399;51.444;-2.018;2023-05-10T10:05:40;100574.03;;;16.85;100.00
43436;BME280;36399;51.444;-2.018;2023-05-10T10:08:09;100534.66;;;17.89;100.00
43436;BME280;36399;51.444;-2.018;2023-05-10T10:10:35;100503.47;;;19.78;100.00
43436;BME280;36399;51.444;-2.018;2023-05-10T10:13:04;100470.44;;;20.53;100.00
43436;BME280;36399;51.444;-2.018;2023-05-10T10:15:32;100471.31;;;20.20;100.00
43436;BME280;36399;51.444;-2.018;2023-05-10T10:17:59;100471.19;;;19.90;100.00
43436;BME280;36399;51.444;-2.018;2023-05-10T10:20:26;100486.91;;;18.83;100.00
43436;BME280;36399;51.444;-2.018;2023-05-10T10:22:52;100502.84;;;18.37;100.00
43436;BME280;36399;51.444;-2.018;2023-05-10T10:25:19;100505.13;;;18.06;100.00
43436;BME280;36399;51.444;-2.018;2023-05-10T10:30:28;100520.38;;;17.95;100.00
43436;BME280;36399;51.444;-2.018;2023-05-10T10:35:30;100514.78;;;16.87;100.00
43436;BME280;36399;51.444;-2.018;2023-05-10T10:37:56;100541.09;;;17.06;100.00
43436;BME280;36399;51.444;-2.018;2023-05-10T10:40:33;100534.44;;;16.71;100.00
43436;BME280;36399;51.444;-2.018;2023-05-10T10:43:22;100551.69;;;16.20;100.00
43436;BME280;36399;51.444;-2.018;2023-05-10T10:46:09;100557.94;;;16.06;100.00
43436;BME280;36399;51.444;-2.018;2023-05-10T10:48:35;100568.59;;;15.99;100.00
43436;BME280;36399;51.444;-2.018;2023-05-10T10:51:02;100556.81;;;16.36;100.00
43436;BME280;36399;51.444;-2.018;2023-05-10T10:53:28;100547.19;;;16.29;100.00
43436;BME280;36399;51.444;-2.018;2023-05-10T10:56:09;100539.13;;;16.40;100.00
43436;BME280;36399;51.444;-2.018;2023-05-10T10:58:39;100537.00;;;16.77;100.00
43436;BME280;36399;51.444;-2.018;2023-05-10T11:03:38;100488.47;;;18.47;100.00
43436;BME280;36399;51.444;-2.018;2023-05-10T11:06:04;100491.69;;;18.15;100.00
43436;BME280;36399;51.444;-2.018;2023-05-10T11:08:32;100495.25;;;17.59;100.00
43436;BME280;36399;51.444;-2.018;2023-05-10T11:16:30;100531.97;;;16.48;100.00
43436;BME280;36399;51.444;-2.018;2023-05-10T11:19:13;100538.47;;;16.15;100.00
43436;BME280;36399;51.444;-2.018;2023-05-10T11:21:51;100549.41;;;15.69;100.00
43436;BME280;36399;51.444;-2.018;2023-05-10T11:24:38;100540.44;;;15.89;100.00
43436;BME280;36399;51.444;-2.018;2023-05-10T11:27:05;100535.47;;;16.52;100.00
43436;BME280;36399;51.444;-2.018;2023-05-10T11:29:31;100521.66;;;17.03;100.00
43436;BME280;36399;51.444;-2.018;2023-05-10T11:31:58;100506.22;;;17.34;100.00
43436;BME280;36399;51.444;-2.018;2023-05-10T11:34:25;100504.44;;;17.37;100.00
43436;BME280;36399;51.444;-2.018;2023-05-10T11:36:52;100484.69;;;18.11;100.00
43436;BME280;36399;51.444;-2.018;2023-05-10T11:39:20;100460.53;;;18.71;100.00
43436;BME280;36399;51.444;-2.018;2023-05-10T11:41:48;100452.06;;;19.73;100.00
43436;BME280;36399;51.444;-2.018;2023-05-10T11:44:14;100438.34;;;20.22;100.00
43436;BME280;36399;51.444;-2.018;2023-05-10T11:46:40;100428.97;;;20.72;100.00
43436;BME280;36399;51.444;-2.018;2023-05-10T11:49:07;100428.88;;;20.75;100.00
43436;BME280;36399;51.444;-2.018;2023-05-10T11:51:34;100429.72;;;20.12;100.00
43436;BME280;36399;51.444;-2.018;2023-05-10T11:54:08;100446.88;;;18.89;100.00
43436;BME280;36399;51.444;-2.018;2023-05-10T11:56:35;100458.50;;;17.90;100.00
43436;BME280;36399;51.444;-2.018;2023-05-10T11:59:01;100451.66;;;17.77;100.00
43436;BME280;36399;51.444;-2.018;2023-05-10T12:01:28;100464.94;;;17.75;100.00
43436;BME280;36399;51.444;-2.018;2023-05-10T12:03:58;100469.44;;;17.72;100.00
43436;BME280;36399;51.444;-2.018;2023-05-10T12:06:30;100449.97;;;18.20;100.00
43436;BME280;36399;51.444;-2.018;2023-05-10T12:08:57;100454.28;;;18.27;100.00
43436;BME280;36399;51.444;-2.018;2023-05-10T12:11:27;100439.41;;;19.45;100.00
43436;BME280;36399;51.444;-2.018;2023-05-10T12:13:53;100434.84;;;19.12;100.00
43436;BME280;36399;51.444;-2.018;2023-05-10T12:16:24;100435.25;;;19.71;100.00
43436;BME280;36399;51.444;-2.018;2023-05-10T12:18:51;100415.50;;;20.77;100.00
43436;BME280;36399;51.444;-2.018;2023-05-10T12:21:19;100440.97;;;19.56;100.00
43436;BME280;36399;51.444;-2.018;2023-05-10T12:23:47;100435.25;;;18.94;100.00
43436;BME280;36399;51.444;-2.018;2023-05-10T12:26:13;100443.59;;;18.77;100.00
43436;BME280;36399;51.444;-2.018;2023-05-10T12:28:39;100457.56;;;18.42;100.00
43436;BME280;36399;51.444;-2.018;2023-05-10T12:31:06;100450.13;;;18.59;100.00
43436;BME280;36399;51.444;-2.018;2023-05-10T12:33:43;100441.63;;;19.27;100.00
43436;BME280;36399;51.444;-2.018;2023-05-10T12:36:10;100451.94;;;19.40;100.00
43436;BME280;36399;51.444;-2.018;2023-05-10T12:38:38;100431.25;;;19.51;100.00
43436;BME280;36399;51.444;-2.018;2023-05-10T12:41:06;100425.50;;;20.39;100.00
43436;BME280;36399;51.444;-2.018;2023-05-10T12:43:34;100428.78;;;20.49;100.00
43436;BME280;36399;51.444;-2.018;2023-05-10T12:48:36;100432.81;;;19.62;100.00
43436;BME280;36399;51.444;-2.018;2023-05-10T12:51:03;100434.44;;;19.30;100.00
43436;BME280;36399;51.444;-2.018;2023-05-10T12:53:30;100432.53;;;19.35;100.00
43436;BME280;36399;51.444;-2.018;2023-05-10T12:55:57;100438.28;;;19.56;100.00
43436;BME280;36399;51.444;-2.018;2023-05-10T12:58:23;100421.09;;;19.69;100.00
43436;BME280;36399;51.444;-2.018;2023-05-10T13:00:50;100427.53;;;20.28;100.00
43436;BME280;36399;51.444;-2.018;2023-05-10T13:03:17;100422.91;;;20.35;100.00
43436;BME280;36399;51.444;-2.018;2023-05-10T13:05:43;100426.72;;;20.25;100.00
43436;BME280;36399;51.444;-2.018;2023-05-10T13:08:09;100431.25;;;19.89;100.00
43436;BME280;36399;51.444;-2.018;2023-05-10T13:10:35;100428.84;;;19.79;100.00